»·PEaware :: N41598 KSNA-KBUR

N41598 :: KSNA-KBUR

FLIGHT INFORMATION

Flight Status: Arrived
Operator: Privately registered:
United States
More flights under this callsign
Pilot: Alex C. (14758)
Aircraft: PILATUS PC-12 EAGLE
(PC12)
More flights by this aircraft type
Origin: KSNA John Wayne-Orange Co
United States
Destination: KBUR Bob Hope-Burbank
United States
More flights between these airports :: More routes between these airports
Route: +SLI V23 LAX LAX316R SILEX
File this flight plan on PilotEdge
Remarks: I-3 Rating - will be requesting ILS 8
Altitude:
(Current/Filed)
6,000ft
Speed:
(Current/Filed)
230kts
Departed: 06-Jan-18 08:32 PM
Arrived: 06-Jan-18 09:17 PM
Distance/Time
Traveled:
40nm/0:45
Distance/Time
To Go:
Arrived

Flight Plot

Page will automatically refresh every two minutes.


Map Options




Map Legend


Flown Route
Filed Route
Departure Airport
Arrival Airport
Navaid (VOR, NDB)
Fix

Horizontal Profiles

Position Reports

Time Latitude Longitude Heading Altitude Ground
Speed
06-Jan-18 20:29 33.679234 -117.862406 116 60ft 0kts
06-Jan-18 20:30 33.679234 -117.862406 116 60ft 0kts
06-Jan-18 20:31 33.679234 -117.862406 116 60ft 0kts
06-Jan-18 20:32 33.679234 -117.862406 116 60ft 0kts
06-Jan-18 20:33 33.679234 -117.862406 116 60ft 0kts
06-Jan-18 20:34 33.679227 -117.862361 86 60ft 3kts
06-Jan-18 20:35 33.679693 -117.862948 297 60ft 6kts
06-Jan-18 20:36 33.679804 -117.863240 294 60ft 0kts
06-Jan-18 20:37 33.679987 -117.863660 297 60ft 11kts
06-Jan-18 20:38 33.677084 -117.866143 209 60ft 86kts
06-Jan-18 20:39 33.664105 -117.874833 211 739ft 121kts
06-Jan-18 20:40 33.648070 -117.880147 187 1894ft 118kts
06-Jan-18 20:41 33.633865 -117.882148 186 2774ft 122kts
06-Jan-18 20:42 33.618847 -117.885182 213 3693ft 125kts
06-Jan-18 20:43 33.614346 -117.901919 295 4726ft 117kts
06-Jan-18 20:44 33.623050 -117.918726 308 5872ft 116kts
06-Jan-18 20:45 33.636772 -117.941212 307 6018ft 184kts
06-Jan-18 20:46 33.653439 -117.968769 307 6007ft 212kts
06-Jan-18 20:47 33.669606 -117.995490 307 6003ft 216kts
06-Jan-18 20:48 33.685224 -118.021259 307 6002ft 218kts
06-Jan-18 20:49 33.703176 -118.050870 307 6000ft 219kts
06-Jan-18 20:50 33.721582 -118.081234 307 5999ft 220kts
06-Jan-18 20:51 33.739504 -118.110785 307 5999ft 220kts
06-Jan-18 20:52 33.756079 -118.138151 306 5999ft 219kts
06-Jan-18 20:53 33.773309 -118.166645 306 5998ft 219kts
06-Jan-18 20:54 33.787937 -118.190842 306 5998ft 219kts
06-Jan-18 20:55 33.801914 -118.213976 305 5998ft 219kts
06-Jan-18 20:56 33.825108 -118.252396 305 5998ft 219kts
06-Jan-18 20:57 33.833461 -118.266242 305 5999ft 221kts
06-Jan-18 20:58 33.854016 -118.300341 304 5999ft 224kts
06-Jan-18 20:59 33.886207 -118.353843 304 5998ft 227kts
06-Jan-18 21:00 33.918592 -118.407724 303 5998ft 228kts
06-Jan-18 21:01 33.960577 -118.450533 328 5998ft 236kts
06-Jan-18 21:02 34.003197 -118.478849 327 5996ft 238kts
06-Jan-18 21:03 34.027635 -118.495229 327 5802ft 241kts
06-Jan-18 21:04 34.052677 -118.512001 327 5475ft 238kts
06-Jan-18 21:05 34.079058 -118.529698 328 5144ft 236kts
06-Jan-18 21:06 34.107720 -118.548953 328 4772ft 225kts
06-Jan-18 21:07 34.144270 -118.573523 329 4235ft 198kts
06-Jan-18 21:08 34.168927 -118.590110 330 3950ft 183kts
06-Jan-18 21:09 34.187893 -118.602428 341 3671ft 181kts
06-Jan-18 21:10 34.207164 -118.596503 51 3419ft 179kts
06-Jan-18 21:11 34.209961 -118.577847 99 3217ft 176kts
06-Jan-18 21:12 34.207021 -118.561022 101 3048ft 150kts
06-Jan-18 21:13 34.203747 -118.544110 102 2985ft 140kts
06-Jan-18 21:14 34.200320 -118.526760 102 2984ft 137kts
06-Jan-18 21:15 34.199394 -118.508899 88 3022ft 124kts
06-Jan-18 21:16 34.199334 -118.490263 89 2756ft 115kts
06-Jan-18 21:17 34.199128 -118.471996 90 2474ft 111kts
06-Jan-18 21:18 34.198763 -118.441089 90 1988ft 112kts
06-Jan-18 21:19 34.198542 -118.423008 90 1698ft 110kts
06-Jan-18 21:20 34.198379 -118.408604 89 1467ft 107kts
06-Jan-18 21:21 34.198174 -118.391167 90 1187ft 101kts
06-Jan-18 21:22 34.198003 -118.377127 90 966ft 97kts
06-Jan-18 21:23 34.197791 -118.361196 89 781ft 16kts
06-Jan-18 21:24 34.196903 -118.360230 152 781ft 0kts
06-Jan-18 21:25 34.196903 -118.360230 152 781ft 0kts
06-Jan-18 21:26 34.196903 -118.360230 152 781ft 0kts
06-Jan-18 21:27 34.196902 -118.360230 151 781ft 0kts
06-Jan-18 21:28 34.195786 -118.360366 185 781ft 3kts

Navigation Log

Ident Type
1. KSNA Airport
2. SLI Navaid
3. POPPR Fix
4. HERMO Fix
5. LAX Navaid
6. SILEX Fix
7. KBUR Airport